Weather History for Bentonville, AR

Change the Weather History Date:

Friday, November 18, 2011

  Actual Average Record
Temperature  
Mean Temperature 47 °F -  
Max Temperature 59 °F 56 °F 74 °F (1981)
Min Temperature 35 °F 34 °F 14 °F (1951)
Degree Days  
Heating Degree Days 18    
Moisture  
Dew Point 23 °F    
Average Humidity 41    
Maximum Humidity 60    
Minimum Humidity 23    
Precipitation  
Precipitation 0.00 in - - ()
Sea Level Pressure  
Sea Level Pressure 30.04 in    
Wind  
Wind Speed 9 mph (South)    
Max Wind Speed 21 mph    
Max Gust Speed 28 mph    
Visibility 10 miles    
Events      
Averages and records for this station are not official NWS values.
T = Trace of Precipitation, MM = Missing Value Source: NWS Daily Summary

Daily Weather History Graph

Daily Weather History Graph

Search for Another Location

Airport:

Trip Planner

Search our weather history database for the weather conditions in past years. The results will help you decide how hot, cold, wet, or windy it might be!

Date:

Astronomy

Nov. 18, 2011 Rise Set
Actual Time 6:56 AM CST 5:06 PM CST
Civil Twilight 6:29 AM CST 5:34 PM CST
Nautical Twilight 5:58 AM CST 6:05 PM CST
Astronomical Twilight 5:27 AM CST 6:36 PM CST
Moon No Moon Rise 12:41 PM CST (11/18)
Length of Visible Light 11h 05m
Length of Day
10h 09m
Waning Gibbous, 49% of the Moon is Illuminated
Nov 18
Waning Gibbous
Nov 25
New
Dec 2
First Quarter
Dec 10
Full
Dec 17
Last Quarter

Hourly Weather History & Observations

Time (CST) Temp. Windchill Dew Point Humidity Pressure Visibility Wind Dir Wind Speed Gust Speed Precip Events Conditions
12:15 AM 35.6 °F 29.9 °F 23.0 °F 60% 30.18 in 10.0 mi SSE 6.9 mph - N/A   Clear
12:35 AM 35.6 °F 31.7 °F 21.2 °F 56% 30.18 in 10.0 mi South 4.6 mph - N/A   Clear
12:55 AM 35.6 °F 30.7 °F 21.2 °F 56% 30.18 in 10.0 mi South 5.8 mph - N/A   Clear
1:15 AM 35.6 °F 30.7 °F 21.2 °F 56% 30.17 in 10.0 mi South 5.8 mph - N/A   Clear
1:35 AM 35.6 °F 30.7 °F 21.2 °F 56% 30.16 in 10.0 mi South 5.8 mph - N/A   Clear
1:55 AM 37.4 °F 33.8 °F 21.2 °F 52% 30.16 in 10.0 mi South 4.6 mph - N/A   Clear
2:35 AM 37.4 °F 32.8 °F 21.2 °F 52% 30.16 in 10.0 mi South 5.8 mph - N/A   Clear
2:55 AM 37.4 °F 33.8 °F 21.2 °F 52% 30.16 in 10.0 mi South 4.6 mph - N/A   Clear
3:15 AM 37.4 °F 33.8 °F 21.2 °F 52% 30.16 in 10.0 mi South 4.6 mph - N/A   Clear
3:35 AM 37.4 °F 32.8 °F 21.2 °F 52% 30.15 in 10.0 mi South 5.8 mph - N/A   Clear
3:55 AM 39.2 °F 34.2 °F 21.2 °F 49% 30.14 in 10.0 mi South 6.9 mph - N/A   Clear
4:15 AM 37.4 °F 32.8 °F 21.2 °F 52% 30.15 in 10.0 mi South 5.8 mph - N/A   Clear
4:35 AM 37.4 °F 32.1 °F 21.2 °F 52% 30.14 in 10.0 mi South 6.9 mph - N/A   Clear
4:55 AM 39.2 °F 34.2 °F 21.2 °F 49% 30.14 in 10.0 mi South 6.9 mph - N/A   Clear
5:35 AM 39.2 °F 34.2 °F 21.2 °F 49% 30.13 in 10.0 mi South 6.9 mph - N/A   Clear
5:55 AM 39.2 °F 33.0 °F 21.2 °F 49% 30.13 in 10.0 mi South 9.2 mph - N/A   Clear
6:15 AM 39.2 °F 33.6 °F 21.2 °F 49% 30.13 in 10.0 mi South 8.1 mph - N/A   Clear
6:35 AM 39.2 °F 33.6 °F 21.2 °F 49% 30.13 in 10.0 mi South 8.1 mph - N/A   Clear
6:55 AM 39.2 °F 33.0 °F 21.2 °F 49% 30.13 in 10.0 mi South 9.2 mph - N/A   Clear
7:15 AM 41.0 °F 34.7 °F 19.4 °F 42% 30.13 in 10.0 mi South 10.4 mph - N/A   Clear
7:35 AM 41.0 °F 34.3 °F 21.2 °F 45% 30.13 in 10.0 mi South 11.5 mph 17.3 mph N/A   Clear
7:55 AM 42.8 °F 35.8 °F 21.2 °F 42% 30.13 in 10.0 mi South 13.8 mph 19.6 mph N/A   Clear
8:15 AM 44.6 °F 38.8 °F 21.2 °F 39% 30.14 in 10.0 mi South 11.5 mph 18.4 mph N/A   Clear
8:35 AM 44.6 °F 38.4 °F 21.2 °F 39% 30.14 in 10.0 mi South 12.7 mph 23.0 mph N/A   Clear
8:55 AM 46.4 °F 39.5 °F 21.2 °F 37% 30.14 in 10.0 mi South 17.3 mph 24.2 mph N/A   Clear
9:15 AM 46.4 °F 41.1 °F 21.2 °F 37% 30.13 in 10.0 mi South 11.5 mph 25.3 mph N/A   Clear
9:35 AM 48.2 °F - 21.2 °F 34% 30.13 in 10.0 mi South 12.7 mph 19.6 mph N/A   Clear
9:55 AM 48.2 °F - 21.2 °F 34% 30.13 in 10.0 mi South 16.1 mph 26.5 mph N/A   Clear
10:15 AM 48.2 °F - 21.2 °F 34% 30.12 in 10.0 mi South 11.5 mph 23.0 mph N/A   Clear
10:35 AM 51.8 °F - 21.2 °F 30% 30.11 in 10.0 mi South 15.0 mph 21.9 mph N/A   Clear
10:55 AM 51.8 °F - 21.2 °F 30% 30.11 in 10.0 mi South 13.8 mph 24.2 mph N/A   Clear
11:15 AM 51.8 °F - 19.4 °F 28% 30.09 in 10.0 mi South 13.8 mph 21.9 mph N/A   Clear
11:55 AM 53.6 °F - 21.2 °F 28% 30.06 in 10.0 mi South 19.6 mph 26.5 mph N/A   Clear
12:15 PM 53.6 °F - 21.2 °F 28% 30.04 in 10.0 mi South 19.6 mph 26.5 mph N/A   Clear
12:35 PM 53.6 °F - 21.2 °F 28% 30.02 in 10.0 mi South 16.1 mph 26.5 mph N/A   Clear
12:55 PM 55.4 °F - 21.2 °F 26% 30.01 in 10.0 mi South 20.7 mph 25.3 mph N/A   Clear
1:35 PM 55.4 °F - 21.2 °F 26% 29.98 in 10.0 mi South 15.0 mph 26.5 mph N/A   Clear
1:55 PM 57.2 °F - 23.0 °F 27% 29.97 in 10.0 mi South 19.6 mph 25.3 mph N/A   Clear
2:15 PM 57.2 °F - 21.2 °F 25% 29.96 in 10.0 mi South 16.1 mph 23.0 mph N/A   Clear
2:55 PM 59.0 °F - 21.2 °F 23% 29.95 in 10.0 mi South 15.0 mph 27.6 mph N/A   Clear
3:55 PM 55.4 °F - 21.2 °F 26% 29.93 in 10.0 mi South 16.1 mph 27.6 mph N/A   Clear
4:15 PM 55.4 °F - 21.2 °F 26% 29.93 in 10.0 mi South 11.5 mph 18.4 mph N/A   Mostly Cloudy
4:55 PM 53.6 °F - 21.2 °F 28% 29.92 in 10.0 mi South 11.5 mph 21.9 mph N/A   Overcast
5:15 PM 51.8 °F - 23.0 °F 33% 29.91 in 10.0 mi South 11.5 mph - N/A   Mostly Cloudy
5:35 PM 51.8 °F - 23.0 °F 33% 29.91 in 10.0 mi South 15.0 mph 20.7 mph N/A   Partly Cloudy
5:55 PM 51.8 °F - 24.8 °F 35% 29.91 in 10.0 mi SSE 12.7 mph 17.3 mph N/A   Mostly Cloudy
6:15 PM 51.8 °F - 24.8 °F 35% 29.90 in 10.0 mi SSE 15.0 mph 21.9 mph N/A   Overcast
6:55 PM 51.8 °F - 26.6 °F 38% 29.90 in 10.0 mi SSE 10.4 mph - N/A   Mostly Cloudy
7:15 PM 50.0 °F - 26.6 °F 40% 29.90 in 10.0 mi SSE 11.5 mph - N/A   Mostly Cloudy
7:35 PM 50.0 °F - 28.4 °F 43% 29.90 in 10.0 mi SSE 13.8 mph 17.3 mph N/A   Mostly Cloudy
7:55 PM 50.0 °F - 28.4 °F 43% 29.90 in 10.0 mi South 10.4 mph 19.6 mph N/A   Overcast
8:15 PM 51.8 °F - 28.4 °F 41% 29.90 in 10.0 mi South 8.1 mph 17.3 mph N/A   Overcast
8:55 PM 51.8 °F - 30.2 °F 44% 29.91 in 10.0 mi South 9.2 mph 16.1 mph N/A   Overcast
9:15 PM 51.8 °F - 30.2 °F 44% 29.91 in 10.0 mi South 11.5 mph 18.4 mph N/A   Overcast
9:35 PM 51.8 °F - 30.2 °F 44% 29.91 in 10.0 mi South 10.4 mph - N/A   Overcast
9:55 PM 51.8 °F - 30.2 °F 44% 29.89 in 10.0 mi South 10.4 mph 16.1 mph N/A   Overcast
10:15 PM 51.8 °F - 30.2 °F 44% 29.90 in 10.0 mi South 12.7 mph 19.6 mph N/A   Overcast
10:35 PM 51.8 °F - 30.2 °F 44% 29.90 in 10.0 mi South 10.4 mph 19.6 mph N/A   Overcast
10:55 PM 51.8 °F - 30.2 °F 44% 29.89 in 10.0 mi South 12.7 mph 19.6 mph N/A   Overcast
11:15 PM 51.8 °F - 28.4 °F 41% 29.89 in 10.0 mi South 11.5 mph 18.4 mph N/A   Mostly Cloudy
11:35 PM 50.0 °F - 30.2 °F 47% 29.89 in 10.0 mi South 12.7 mph 19.6 mph N/A   Scattered Clouds
11:55 PM 50.0 °F - 30.2 °F 47% 29.88 in 10.0 mi South 15.0 mph 19.6 mph N/A   Clear